Time;durP1;ratioP1;P1;durP2;ratioP2;P2;SDS_P1;SDS_P2;PMS_P1;PMS_P2;Temp;Humidity;BMP_temperature;BMP_pressure;BME280_temperature;BME280_humidity;BME280_pressure;Samples;Min_cycle;Max_cycle;Signal;HPM_P1;HPM_P2
2022/07/13 08:11:56;;;;;;;3.15;0.98;;;28.50;95.60;;;;;;4887794;29;20241;-74
2022/07/13 08:14:24;;;;;;;1.42;0.82;;;28.70;95.20;;;;;;4884397;29;20202;-72
2022/07/13 08:16:50;;;;;;;1.73;0.90;;;28.90;95.10;;;;;;4892511;29;20235;-72
2022/07/13 08:19:17;;;;;;;2.15;1.02;;;29.10;95.10;;;;;;4897084;29;20301;-72
2022/07/13 08:21:44;;;;;;;4.50;1.15;;;29.10;95.60;;;;;;4884687;29;20543;-76
2022/07/13 08:24:11;;;;;;;4.28;1.23;;;29.10;94.40;;;;;;4878253;29;20238;-75
2022/07/13 08:26:37;;;;;;;2.60;0.98;;;29.60;94.20;;;;;;4883759;29;20241;-73
2022/07/13 08:29:06;;;;;;;3.40;1.27;;;30.70;94.00;;;;;;4896335;29;20573;-76
2022/07/13 08:31:32;;;;;;;4.05;1.10;;;31.20;92.70;;;;;;4896167;29;20563;-79
2022/07/13 08:39:28;;;;;;;1.85;0.90;;;32.50;91.40;;;;;;4896433;29;20225;-73
2022/07/13 08:41:58;;;;;;;2.42;1.30;;;32.50;91.70;;;;;;4896581;29;20238;-72
2022/07/13 08:44:27;;;;;;;2.28;0.98;;;32.10;92.00;;;;;;4895432;29;20213;-75
2022/07/13 08:46:54;;;;;;;2.83;1.08;;;32.10;92.10;;;;;;4896141;29;20234;-75
2022/07/13 08:49:22;;;;;;;2.42;1.10;;;32.00;91.50;;;;;;4896161;29;20215;-75
2022/07/13 08:51:50;;;;;;;1.90;1.00;;;32.00;91.80;;;;;;4895810;29;20601;-72
2022/07/13 08:54:17;;;;;;;2.67;1.27;;;31.50;92.30;;;;;;4896341;29;20226;-77
2022/07/13 08:56:44;;;;;;;4.15;1.08;;;31.10;91.80;;;;;;4895990;29;20230;-75
2022/07/13 08:59:10;;;;;;;1.52;0.90;;;31.00;92.40;;;;;;4897543;29;20218;-74
2022/07/13 09:01:40;;;;;;;2.28;1.10;;;30.60;93.00;;;;;;4900042;29;20241;-75
2022/07/13 09:04:10;;;;;;;3.40;0.95;;;30.80;92.70;;;;;;4898996;29;20203;-72
2022/07/13 09:06:48;;;;;;;6.70;1.15;;;30.90;91.00;;;;;;4898940;29;20593;-68
2022/07/13 09:09:33;;;;;;;2.75;1.08;;;31.20;91.10;;;;;;4899300;29;20245;-71
2022/07/13 09:12:18;;;;;;;3.10;0.90;;;31.20;90.70;;;;;;4899670;29;20273;-74
2022/07/13 09:14:52;;;;;;;1.42;1.02;;;30.90;90.70;;;;;;4900730;29;20257;-74
2022/07/13 09:17:35;;;;;;;2.08;1.00;;;30.70;92.60;;;;;;4900330;29;20236;-74
2022/07/13 09:20:16;;;;;;;3.33;0.95;;;30.50;91.80;;;;;;4900405;29;20225;-73
2022/07/13 09:22:48;;;;;;;1.63;0.80;;;30.40;91.50;;;;;;4900480;29;20218;-74
2022/07/13 09:25:28;;;;;;;2.17;0.90;;;30.60;92.30;;;;;;4900145;29;20634;-72
2022/07/13 09:27:55;;;;;;;1.45;0.80;;;30.60;90.80;;;;;;4900282;29;20318;-71
2022/07/13 09:30:23;;;;;;;3.13;1.33;;;30.60;90.60;;;;;;4900458;29;20214;-73
2022/07/13 09:32:53;;;;;;;1.25;0.93;;;30.80;90.60;;;;;;4900523;29;20248;-71
2022/07/13 09:35:20;;;;;;;2.45;0.90;;;30.80;90.40;;;;;;4900520;29;20215;-74
2022/07/13 09:37:48;;;;;;;1.33;0.82;;;30.80;88.80;;;;;;4901126;29;20289;-74
2022/07/13 09:40:17;;;;;;;1.35;0.90;;;31.00;89.20;;;;;;4900937;29;20293;-73
2022/07/13 09:42:45;;;;;;;1.70;0.90;;;31.10;88.10;;;;;;4900072;29;20305;-73
2022/07/13 09:48:01;;;;;;;1.17;0.85;;;31.90;88.80;;;;;;4899956;29;20226;-73
2022/07/13 09:50:38;;;;;;;3.28;0.95;;;32.20;87.00;;;;;;4900188;29;20221;-74
2022/07/13 09:53:24;;;;;;;2.08;0.90;;;32.10;86.80;;;;;;4899901;29;20244;-74
2022/07/13 09:55:52;;;;;;;1.85;0.90;;;32.30;87.10;;;;;;4900003;29;20220;-72
2022/07/13 09:58:22;;;;;;;2.50;0.88;;;32.20;85.70;;;;;;4900068;29;20297;-74
2022/07/13 10:00:50;;;;;;;1.00;0.80;;;32.10;85.30;;;;;;4899761;29;20242;-74
2022/07/13 10:03:19;;;;;;;4.10;1.05;;;31.90;85.90;;;;;;4899687;29;20215;-73
2022/07/13 10:05:46;;;;;;;1.58;1.00;;;31.80;85.70;;;;;;4899663;29;20669;-73
2022/07/13 10:08:13;;;;;;;1.75;1.00;;;31.70;87.80;;;;;;4899659;29;20214;-73
2022/07/13 10:10:40;;;;;;;1.88;1.10;;;31.90;88.20;;;;;;4898369;29;20253;-72
2022/07/13 10:13:07;;;;;;;1.60;0.90;;;32.10;89.90;;;;;;4899474;29;20912;-74
2022/07/13 10:15:36;;;;;;;1.05;0.88;;;32.20;86.60;;;;;;4894493;29;20605;-72
2022/07/13 10:18:03;;;;;;;2.45;1.10;;;32.20;88.60;;;;;;4897728;29;20230;-75
2022/07/13 10:20:33;;;;;;;1.60;1.00;;;32.30;85.60;;;;;;4898099;29;20211;-75
2022/07/13 10:23:00;;;;;;;1.20;1.00;;;32.30;86.50;;;;;;4899132;29;20211;-74
2022/07/13 10:25:42;;;;;;;2.60;1.08;;;31.60;85.20;;;;;;4898731;29;20211;-71
2022/07/13 10:28:11;;;;;;;1.60;1.10;;;31.20;89.00;;;;;;4898817;29;20211;-73
2022/07/13 10:30:38;;;;;;;1.40;0.90;;;31.30;88.80;;;;;;4899391;29;20677;-70
2022/07/13 10:33:19;;;;;;;2.03;0.98;;;31.50;89.40;;;;;;4899200;29;20238;-69
2022/07/13 10:35:52;;;;;;;2.47;1.00;;;31.40;87.40;;;;;;4899045;29;20206;-73
2022/07/13 10:39:11;;;;;;;3.47;1.30;;;31.30;89.10;;;;;;5089101;28;20502;-73
2022/07/13 10:41:56;;;;;;;3.90;1.30;;;31.10;90.20;;;;;;5089485;28;20519;-72
2022/07/13 10:44:47;;;;;;;1.67;1.10;;;31.00;90.40;;;;;;5090669;28;20248;-75
2022/07/13 10:47:19;;;;;;;1.85;0.90;;;31.20;90.90;;;;;;5079925;28;20284;-70
2022/07/13 10:49:47;;;;;;;0.90;0.80;;;31.20;89.60;;;;;;5090314;28;20677;-69
2022/07/13 10:52:53;;;;;;;0.82;0.63;;;31.20;85.00;;;;;;5090496;28;20198;-70
2022/07/13 10:55:31;;;;;;;0.90;0.70;;;31.40;86.70;;;;;;5090176;28;20292;-70
2022/07/13 10:58:00;;;;;;;1.63;0.85;;;31.70;86.30;;;;;;5090095;28;20973;-69
2022/07/13 11:00:44;;;;;;;0.95;0.65;;;31.80;85.90;;;;;;5090275;28;20207;-70
2022/07/13 11:03:35;;;;;;;0.65;0.50;;;31.90;85.90;;;;;;5090154;28;20209;-68
2022/07/13 11:06:07;;;;;;;1.13;0.60;;;32.10;85.70;;;;;;5086721;28;20227;-69
2022/07/13 11:08:34;;;;;;;1.60;1.05;;;32.10;85.80;;;;;;5090272;28;20209;-69
2022/07/13 11:11:13;;;;;;;2.72;0.77;;;32.00;84.90;;;;;;5089903;28;20262;-69
2022/07/13 11:13:41;;;;;;;1.33;0.90;;;31.90;84.70;;;;;;5090080;28;20263;-69
2022/07/13 11:16:08;;;;;;;1.50;1.00;;;32.00;85.10;;;;;;5089881;28;20619;-69
2022/07/13 11:18:36;;;;;;;2.25;0.90;;;32.00;82.90;;;;;;5089651;28;20593;-69
2022/07/13 11:21:05;;;;;;;2.75;1.00;;;31.90;84.80;;;;;;5090184;28;20203;-70
2022/07/13 11:26:46;;;;;;;0.73;0.70;;;31.90;86.30;;;;;;5089567;28;20303;-69
2022/07/13 11:29:18;;;;;;;5.80;1.75;;;31.90;86.80;;;;;;5089534;28;20209;-70
2022/07/13 11:31:45;;;;;;;1.00;0.75;;;31.90;89.30;;;;;;5089416;28;20202;-69
2022/07/13 11:34:12;;;;;;;0.98;0.65;;;31.70;85.90;;;;;;5089641;28;20209;-70
2022/07/13 11:36:41;;;;;;;3.47;0.80;;;31.80;87.40;;;;;;5089545;28;20223;-69
2022/07/13 11:39:22;;;;;;;4.45;0.80;;;32.10;87.50;;;;;;5089333;28;20231;-70
2022/07/13 11:41:51;;;;;;;1.45;0.80;;;32.50;87.00;;;;;;5089282;28;20207;-70
2022/07/13 11:44:21;;;;;;;0.68;0.60;;;32.70;85.90;;;;;;5089373;28;20199;-70
2022/07/13 11:46:48;;;;;;;0.82;0.60;;;32.80;85.20;;;;;;5089208;28;20318;-70
2022/07/13 11:49:15;;;;;;;1.83;0.60;;;32.80;85.10;;;;;;5081421;28;20680;-70
2022/07/13 11:51:43;;;;;;;1.80;0.88;;;32.50;84.60;;;;;;5075393;28;20203;-70
2022/07/13 11:54:13;;;;;;;2.33;1.00;;;32.70;85.90;;;;;;5075527;28;20209;-70
2022/07/13 11:56:47;;;;;;;1.55;0.80;;;32.70;84.50;;;;;;5075537;28;20223;-70
2022/07/13 11:59:16;;;;;;;1.15;0.93;;;32.60;85.60;;;;;;5075426;28;20234;-70
2022/07/13 12:01:51;;;;;;;1.42;0.90;;;32.50;85.90;;;;;;5075707;28;20203;-70
2022/07/13 12:04:23;;;;;;;0.85;0.82;;;32.50;86.40;;;;;;5075447;28;20207;-69
2022/07/13 12:06:50;;;;;;;1.80;1.00;;;32.40;86.50;;;;;;5075298;28;20238;-70
2022/07/13 12:09:20;;;;;;;2.20;0.98;;;32.20;87.10;;;;;;5075327;28;20215;-68
2022/07/13 12:11:47;;;;;;;1.10;0.80;;;32.30;87.20;;;;;;5075317;28;20239;-68
2022/07/13 12:14:15;;;;;;;2.25;1.10;;;32.40;87.90;;;;;;5075398;28;20203;-69
2022/07/13 12:16:42;;;;;;;4.65;1.17;;;32.40;85.60;;;;;;5074957;28;20227;-69
2022/07/13 12:19:09;;;;;;;1.67;0.98;;;32.50;87.90;;;;;;5074842;28;20237;-69
2022/07/13 12:21:38;;;;;;;1.20;0.90;;;32.80;87.10;;;;;;5075426;28;20203;-70
2022/07/13 12:24:06;;;;;;;2.25;0.90;;;32.90;86.00;;;;;;5075097;28;20203;-69
2022/07/13 12:26:33;;;;;;;1.40;0.77;;;33.20;84.40;;;;;;5074956;28;20219;-69
2022/07/13 12:29:00;;;;;;;0.80;0.80;;;33.40;86.00;;;;;;5074935;28;20214;-69
2022/07/13 12:31:29;;;;;;;0.85;0.70;;;32.90;84.30;;;;;;5074712;28;20273;-70
2022/07/13 12:33:56;;;;;;;1.25;0.82;;;32.90;86.70;;;;;;5074955;28;20552;-70
2022/07/13 12:36:25;;;;;;;0.98;0.73;;;32.90;84.80;;;;;;5074981;28;20223;-70
2022/07/13 12:39:00;;;;;;;1.45;0.80;;;32.70;85.90;;;;;;5074559;28;20266;-68
2022/07/13 12:41:28;;;;;;;2.28;0.90;;;32.60;85.40;;;;;;5074827;28;20203;-68
2022/07/13 12:43:57;;;;;;;1.20;0.90;;;32.50;87.10;;;;;;5074638;28;20207;-68
2022/07/13 12:46:24;;;;;;;3.53;1.08;;;32.40;87.70;;;;;;5074442;28;20226;-70
2022/07/13 12:49:01;;;;;;;1.05;0.73;;;32.00;87.00;;;;;;5074684;28;20257;-68
2022/07/13 12:51:51;;;;;;;1.15;0.80;;;31.90;87.10;;;;;;5074426;28;20207;-69
2022/07/13 12:54:32;;;;;;;4.15;0.80;;;32.00;86.50;;;;;;5074260;28;20229;-68
2022/07/13 12:56:59;;;;;;;1.42;1.00;;;32.20;84.60;;;;;;5064839;28;20232;-71
2022/07/13 12:59:25;;;;;;;0.82;0.70;;;32.10;86.10;;;;;;5054944;28;20262;-71
2022/07/13 13:01:52;;;;;;;1.60;0.80;;;32.00;86.20;;;;;;5055505;28;20574;-71
2022/07/13 13:04:20;;;;;;;1.10;0.95;;;32.00;87.70;;;;;;5074177;28;20211;-70
2022/07/13 13:06:48;;;;;;;2.72;0.80;;;31.70;87.00;;;;;;5062239;28;20242;-69
2022/07/13 13:09:17;;;;;;;5.30;0.98;;;31.80;87.30;;;;;;5054206;28;20219;-71
2022/07/13 13:11:46;;;;;;;0.80;0.77;;;31.70;86.60;;;;;;5053525;28;20200;-70
2022/07/13 13:14:13;;;;;;;2.60;0.65;;;31.50;87.30;;;;;;5057013;28;20191;-70
2022/07/13 13:16:41;;;;;;;1.42;0.82;;;31.30;88.50;;;;;;5062467;28;20633;-70
2022/07/13 13:19:09;;;;;;;1.08;0.70;;;31.10;89.00;;;;;;5053344;28;20661;-69
2022/07/13 13:21:37;;;;;;;2.03;0.80;;;31.10;89.10;;;;;;5053394;28;20207;-69
2022/07/13 13:24:07;;;;;;;1.50;1.00;;;31.20;88.30;;;;;;5053591;28;20211;-70
2022/07/13 13:26:35;;;;;;;1.88;0.90;;;31.30;87.80;;;;;;5065354;28;20226;-70
2022/07/13 13:31:47;;;;;;;2.95;0.80;;;31.20;87.70;;;;;;5064800;28;20695;-68
2022/07/13 13:34:14;;;;;;;1.83;0.70;;;31.40;88.40;;;;;;5073232;28;20204;-69
2022/07/13 13:36:43;;;;;;;1.00;0.80;;;31.70;87.00;;;;;;5062714;28;20228;-70
2022/07/13 13:39:09;;;;;;;1.15;0.63;;;32.20;88.40;;;;;;5067453;28;20234;-69
2022/07/13 13:41:36;;;;;;;1.00;0.70;;;32.30;84.10;;;;;;5073474;28;20210;-69
2022/07/13 13:44:03;;;;;;;4.40;0.77;;;32.30;84.70;;;;;;5068502;28;20195;-69
2022/07/13 13:46:30;;;;;;;1.52;0.80;;;32.20;85.40;;;;;;5060577;28;20428;-71
2022/07/13 13:48:57;;;;;;;2.78;0.60;;;32.20;82.90;;;;;;5061664;28;20230;-70
2022/07/13 13:51:24;;;;;;;1.23;0.75;;;32.10;82.90;;;;;;5061974;28;20577;-70
2022/07/13 13:53:52;;;;;;;2.38;0.93;;;31.90;81.80;;;;;;5069917;28;20213;-69
2022/07/13 13:56:21;;;;;;;0.57;0.50;;;31.90;80.90;;;;;;5051835;28;20228;-71
2022/07/13 13:58:49;;;;;;;1.88;0.65;;;31.80;81.40;;;;;;5051360;28;20239;-70
2022/07/13 14:01:16;;;;;;;1.75;0.80;;;31.50;83.30;;;;;;5052646;28;20204;-70
2022/07/13 14:03:44;;;;;;;1.05;0.60;;;31.30;82.20;;;;;;5052499;28;20306;-69
2022/07/13 14:06:14;;;;;;;3.15;1.20;;;31.10;83.60;;;;;;5052452;28;20235;-70
2022/07/13 14:08:43;;;;;;;1.33;0.70;;;31.10;83.40;;;;;;5052980;28;20254;-68
2022/07/13 14:11:12;;;;;;;0.90;0.80;;;31.00;83.20;;;;;;5052891;28;20262;-69
2022/07/13 14:13:39;;;;;;;0.90;0.73;;;30.90;82.80;;;;;;5053275;28;20211;-69
2022/07/13 14:16:06;;;;;;;1.23;0.85;;;31.00;84.00;;;;;;5053069;28;20224;-69
2022/07/13 14:18:33;;;;;;;1.00;0.90;;;30.90;81.80;;;;;;5053161;28;20228;-68
2022/07/13 14:21:00;;;;;;;1.63;0.90;;;30.90;82.80;;;;;;5053006;28;20204;-69
2022/07/13 14:23:27;;;;;;;1.95;0.90;;;31.00;82.10;;;;;;5052890;28;20214;-69
2022/07/13 14:25:54;;;;;;;0.82;0.70;;;30.90;81.60;;;;;;5052660;28;20208;-69
2022/07/13 14:28:22;;;;;;;0.98;0.80;;;30.60;81.60;;;;;;5052718;28;20337;-69
2022/07/13 14:30:49;;;;;;;1.70;0.70;;;30.50;82.40;;;;;;5053027;28;20291;-68
2022/07/13 14:33:16;;;;;;;2.28;0.70;;;30.60;85.00;;;;;;5053110;28;20567;-69
2022/07/13 14:35:44;;;;;;;1.00;0.90;;;30.50;90.10;;;;;;5052575;28;20358;-69
2022/07/13 14:38:12;;;;;;;1.33;0.93;;;30.40;91.20;;;;;;5052736;28;20236;-69
2022/07/13 14:40:40;;;;;;;1.75;1.10;;;30.20;91.60;;;;;;5052357;28;20666;-69
2022/07/13 14:43:06;;;;;;;2.08;1.10;;;30.10;91.80;;;;;;5052941;28;20211;-69
2022/07/13 14:45:35;;;;;;;2.45;1.10;;;30.20;91.90;;;;;;5053020;28;20204;-68
2022/07/13 14:48:03;;;;;;;1.98;1.10;;;30.10;91.50;;;;;;5052651;28;20300;-69
2022/07/13 14:50:30;;;;;;;1.73;1.08;;;29.80;91.60;;;;;;5052837;28;20214;-69
2022/07/13 14:52:57;;;;;;;2.53;1.20;;;29.70;91.80;;;;;;5052700;28;20200;-69
2022/07/13 14:55:24;;;;;;;1.92;1.33;;;29.60;92.00;;;;;;5052454;28;20261;-69
2022/07/13 14:57:51;;;;;;;3.65;1.05;;;29.50;92.10;;;;;;5052559;28;20220;-69
2022/07/13 15:00:18;;;;;;;1.83;0.93;;;29.70;92.30;;;;;;5052636;28;20562;-69
2022/07/13 15:02:47;;;;;;;3.25;0.90;;;29.90;92.50;;;;;;5052634;28;20621;-70
2022/07/13 15:05:15;;;;;;;1.17;1.08;;;30.00;92.10;;;;;;5052158;28;20208;-68
2022/07/13 15:07:42;;;;;;;1.60;1.00;;;30.10;92.10;;;;;;5051985;28;20706;-68
2022/07/13 15:10:11;;;;;;;1.55;1.10;;;30.20;92.30;;;;;;5052300;28;20208;-69
2022/07/13 15:12:38;;;;;;;2.10;1.17;;;30.30;92.60;;;;;;5052729;28;20204;-69
2022/07/13 15:15:06;;;;;;;1.40;1.10;;;30.30;91.50;;;;;;5052632;28;20307;-69
2022/07/13 15:17:33;;;;;;;1.88;1.25;;;30.20;91.70;;;;;;5052380;28;20260;-70
2022/07/13 15:20:01;;;;;;;2.88;1.20;;;30.10;91.40;;;;;;5052110;28;20228;-69
2022/07/13 15:22:29;;;;;;;3.40;1.30;;;30.10;91.80;;;;;;5052087;28;20215;-70
2022/07/13 15:24:56;;;;;;;2.15;1.40;;;30.20;92.10;;;;;;5054967;28;20212;-70
2022/07/13 15:27:23;;;;;;;1.58;1.05;;;30.20;91.50;;;;;;5055975;28;20235;-69
2022/07/13 15:29:50;;;;;;;2.05;1.15;;;30.20;91.80;;;;;;5056235;28;20208;-68
2022/07/13 15:32:17;;;;;;;2.30;1.10;;;30.20;91.80;;;;;;5056215;28;20206;-69
2022/07/13 15:34:44;;;;;;;1.75;1.33;;;30.10;91.70;;;;;;5055954;28;20629;-69
2022/07/13 15:37:12;;;;;;;3.45;1.20;;;30.10;91.40;;;;;;5055814;28;20585;-68
2022/07/13 15:39:39;;;;;;;1.40;1.30;;;30.10;91.60;;;;;;5055688;28;20330;-69
2022/07/13 15:42:06;;;;;;;1.38;1.08;;;29.90;91.50;;;;;;5055992;28;20291;-69
2022/07/13 15:44:33;;;;;;;1.75;1.35;;;29.60;92.20;;;;;;5055959;28;20204;-68
2022/07/13 15:47:00;;;;;;;2.05;1.30;;;29.40;92.40;;;;;;5055663;28;20234;-67
2022/07/13 15:49:27;;;;;;;2.80;1.10;;;29.30;92.60;;;;;;5055610;28;20200;-69
2022/07/13 15:51:53;;;;;;;2.17;1.13;;;29.10;92.70;;;;;;5055635;28;20208;-70
2022/07/13 15:54:22;;;;;;;2.15;0.90;;;28.90;93.20;;;;;;5055298;28;20693;-69
2022/07/13 15:56:49;;;;;;;1.40;1.02;;;28.70;93.30;;;;;;5055250;28;20224;-71
2022/07/13 15:59:16;;;;;;;1.80;1.02;;;28.60;93.60;;;;;;5057858;28;20319;-71
2022/07/13 16:01:43;;;;;;;1.27;1.17;;;28.70;93.70;;;;;;5055567;28;20625;-71
2022/07/13 16:04:09;;;;;;;1.35;1.00;;;28.80;92.90;;;;;;5063502;28;20200;-71
2022/07/13 16:06:36;;;;;;;1.63;1.10;;;28.80;92.90;;;;;;5075575;28;20258;-68
2022/07/13 16:09:03;;;;;;;2.10;0.75;;;28.70;92.80;;;;;;5075452;28;20211;-71
2022/07/13 16:11:31;;;;;;;0.70;0.70;;;28.60;92.40;;;;;;5075056;28;20199;-69
2022/07/13 16:13:59;;;;;;;1.38;0.93;;;28.60;91.80;;;;;;5074827;28;20210;-75
2022/07/13 16:16:26;;;;;;;1.65;0.88;;;28.40;90.80;;;;;;5063126;28;20227;-70
2022/07/13 16:18:53;;;;;;;1.23;0.82;;;28.10;91.00;;;;;;5053492;28;20231;-71
2022/07/13 16:21:19;;;;;;;1.38;0.93;;;27.90;91.40;;;;;;5054211;28;20204;-72
2022/07/13 16:23:46;;;;;;;1.08;0.63;;;27.80;91.40;;;;;;5054047;28;20208;-75
2022/07/13 16:26:13;;;;;;;1.02;0.70;;;27.70;91.40;;;;;;5072644;28;20223;-74
2022/07/13 16:28:42;;;;;;;0.65;0.60;;;27.50;91.10;;;;;;5059453;28;20670;-71
2022/07/13 16:31:09;;;;;;;0.93;0.70;;;27.50;91.10;;;;;;5053343;28;20287;-74
2022/07/13 16:33:36;;;;;;;2.42;0.80;;;27.50;90.60;;;;;;5054048;28;20204;-71
2022/07/13 16:36:03;;;;;;;1.40;0.80;;;27.40;90.80;;;;;;5070543;28;20219;-72
2022/07/13 16:38:30;;;;;;;0.82;0.65;;;27.30;91.10;;;;;;5060784;28;20215;-73
2022/07/13 16:40:58;;;;;;;0.82;0.80;;;27.30;91.70;;;;;;5053423;28;20204;-73
2022/07/13 16:43:25;;;;;;;0.82;0.70;;;27.20;91.50;;;;;;5053616;28;20239;-70
2022/07/13 16:45:53;;;;;;;1.48;0.80;;;27.30;91.70;;;;;;5069019;28;20318;-69
2022/07/13 16:48:20;;;;;;;2.65;0.93;;;27.30;92.10;;;;;;5062209;28;20211;-73
2022/07/13 16:50:47;;;;;;;2.42;1.00;;;27.30;92.30;;;;;;5053626;28;20222;-74
2022/07/13 16:53:14;;;;;;;2.08;0.70;;;27.30;92.40;;;;;;5064550;28;20290;-73
2022/07/13 16:55:40;;;;;;;1.10;0.80;;;27.20;92.60;;;;;;5067276;28;20205;-70
2022/07/13 16:58:08;;;;;;;2.47;1.00;;;27.00;92.60;;;;;;5053018;28;20211;-74
2022/07/13 17:00:36;;;;;;;1.83;0.80;;;27.00;92.70;;;;;;5053057;28;20235;-72
2022/07/13 17:03:05;;;;;;;1.23;0.88;;;26.80;93.10;;;;;;5063768;28;20265;-71
2022/07/13 17:05:32;;;;;;;1.80;0.82;;;26.80;93.50;;;;;;5072851;28;20300;-70
2022/07/13 17:07:58;;;;;;;0.70;0.70;;;26.70;93.70;;;;;;5064992;28;20692;-70
2022/07/13 17:10:25;;;;;;;1.45;0.90;;;26.60;94.20;;;;;;5052646;28;20263;-70
2022/07/13 17:12:52;;;;;;;3.03;1.13;;;26.50;94.20;;;;;;5063692;28;20729;-71
2022/07/13 17:15:20;;;;;;;1.50;0.77;;;26.60;94.40;;;;;;5060536;28;20205;-71
2022/07/13 17:17:47;;;;;;;0.98;0.68;;;26.50;93.90;;;;;;5053033;28;20232;-72
2022/07/13 17:20:15;;;;;;;1.02;0.65;;;26.40;94.00;;;;;;5053455;28;20232;-74
2022/07/13 17:22:42;;;;;;;2.15;0.60;;;26.30;93.90;;;;;;5052648;28;20200;-70
2022/07/13 17:25:10;;;;;;;1.35;0.80;;;26.10;94.00;;;;;;5062696;28;20207;-72
2022/07/13 17:27:36;;;;;;;1.15;0.70;;;26.10;93.60;;;;;;5067673;28;20220;-70
2022/07/13 17:30:04;;;;;;;1.30;1.17;;;26.00;94.00;;;;;;5052551;28;20207;-70
2022/07/13 17:32:31;;;;;;;0.60;0.60;;;26.00;93.40;;;;;;5052706;28;20216;-70
2022/07/13 17:34:59;;;;;;;1.63;1.00;;;26.10;93.40;;;;;;5061417;28;20298;-71
2022/07/13 17:37:27;;;;;;;1.50;0.60;;;26.10;93.30;;;;;;5064596;28;20232;-68
2022/07/13 17:39:54;;;;;;;1.50;1.00;;;26.20;93.30;;;;;;5052913;28;20240;-72
2022/07/13 17:42:20;;;;;;;1.30;1.10;;;26.00;93.60;;;;;;5053331;28;20215;-70
2022/07/13 17:44:47;;;;;;;1.00;0.90;;;26.00;93.70;;;;;;5053709;28;20204;-67
2022/07/13 17:47:14;;;;;;;1.27;0.70;;;26.00;94.10;;;;;;5052996;28;20302;-66
2022/07/13 17:49:41;;;;;;;1.33;0.88;;;25.90;94.20;;;;;;5053192;28;20287;-71
2022/07/13 17:52:09;;;;;;;1.02;0.77;;;25.80;94.70;;;;;;5055178;28;20295;-72
2022/07/13 17:54:37;;;;;;;2.55;0.82;;;25.80;94.50;;;;;;5073010;28;20302;-69
2022/07/13 17:57:04;;;;;;;2.42;1.10;;;25.80;95.10;;;;;;5072103;28;20728;-71
2022/07/13 17:59:37;;;;;;;1.48;1.00;;;25.60;95.40;;;;;;5053309;28;20263;-71
2022/07/13 18:02:04;;;;;;;1.02;0.80;;;25.60;95.70;;;;;;5052918;28;20486;-69
2022/07/13 18:04:31;;;;;;;3.05;1.20;;;25.70;96.20;;;;;;5053162;28;20200;-69
2022/07/13 18:06:58;;;;;;;3.05;1.30;;;25.60;96.80;;;;;;5052561;28;20537;-70
2022/07/13 18:09:26;;;;;;;1.90;1.23;;;25.70;96.80;;;;;;5053021;28;20216;-71
2022/07/13 18:11:54;;;;;;;1.60;1.05;;;25.70;96.80;;;;;;5053059;28;20204;-71
2022/07/13 18:14:21;;;;;;;3.50;1.60;;;25.60;97.00;;;;;;5053064;28;20208;-70
2022/07/13 18:16:48;;;;;;;3.47;1.23;;;25.50;97.30;;;;;;5052843;28;20725;-68
2022/07/13 18:19:15;;;;;;;2.28;1.30;;;25.50;98.00;;;;;;5052656;28;20666;-70
2022/07/13 18:21:41;;;;;;;1.52;1.20;;;25.30;97.80;;;;;;5052523;28;20203;-71
2022/07/13 18:24:08;;;;;;;2.03;1.10;;;25.30;98.00;;;;;;5052357;28;20219;-70
2022/07/13 18:26:38;;;;;;;1.80;1.30;;;25.40;98.10;;;;;;5052728;28;20302;-70
2022/07/13 18:29:06;;;;;;;1.75;0.98;;;25.40;98.10;;;;;;5051713;28;20601;-73
2022/07/13 18:31:34;;;;;;;1.40;0.90;;;25.40;98.40;;;;;;5052151;28;20697;-72
2022/07/13 18:34:01;;;;;;;1.63;1.10;;;25.40;98.20;;;;;;5052026;28;20766;-75
2022/07/13 18:36:28;;;;;;;2.45;1.38;;;25.40;97.60;;;;;;5052002;28;20220;-71
2022/07/13 18:38:55;;;;;;;2.85;1.20;;;25.40;97.80;;;;;;5051921;28;20207;-72
2022/07/13 18:41:21;;;;;;;1.80;1.20;;;25.40;97.80;;;;;;5051844;28;20323;-70
2022/07/13 18:43:49;;;;;;;2.75;1.23;;;25.20;97.60;;;;;;5052421;28;20211;-75
2022/07/13 18:46:19;;;;;;;3.03;1.23;;;25.20;97.60;;;;;;5051886;28;20230;-69
2022/07/13 18:48:46;;;;;;;2.25;1.38;;;25.20;97.90;;;;;;5052097;28;20224;-68
2022/07/13 18:51:13;;;;;;;1.52;1.20;;;25.10;98.00;;;;;;5052661;28;20214;-76
2022/07/13 18:53:39;;;;;;;2.08;1.30;;;25.10;98.00;;;;;;5067814;28;20199;-77
2022/07/13 18:56:06;;;;;;;1.40;0.95;;;25.00;98.00;;;;;;5067511;28;20226;-69
2022/07/13 18:58:33;;;;;;;3.72;1.25;;;25.10;98.60;;;;;;5070485;28;20204;-65
2022/07/13 19:01:00;;;;;;;1.85;1.10;;;25.00;98.40;;;;;;5083847;28;20254;-65
2022/07/13 19:03:28;;;;;;;1.38;1.02;;;25.10;98.10;;;;;;5088589;28;20266;-68
2022/07/13 19:05:55;;;;;;;1.63;1.10;;;25.00;98.10;;;;;;5089632;28;20210;-75
2022/07/13 19:08:22;;;;;;;1.60;1.02;;;25.00;98.40;;;;;;5079679;28;20213;-66
2022/07/13 19:10:49;;;;;;;3.20;1.10;;;24.90;98.70;;;;;;5069727;28;20214;-65
2022/07/13 19:13:16;;;;;;;2.15;1.08;;;24.90;98.70;;;;;;5061358;28;20199;-68
2022/07/13 19:15:43;;;;;;;1.98;1.02;;;25.10;98.80;;;;;;5064176;28;20590;-74
2022/07/13 19:18:10;;;;;;;5.47;1.33;;;25.00;98.90;;;;;;5071022;28;20297;-74
2022/07/13 19:20:39;;;;;;;1.58;1.10;;;24.90;99.20;;;;;;5061235;28;20697;-71
2022/07/13 19:23:06;;;;;;;1.63;1.02;;;24.90;99.50;;;;;;5077215;28;20203;-67
2022/07/13 19:28:17;;;;;;;1.40;1.10;;;24.70;99.90;;;;;;5069790;28;20211;-73
2022/07/13 19:30:44;;;;;;;2.72;1.40;;;24.70;99.90;;;;;;5063425;28;20664;-74
2022/07/13 19:33:10;;;;;;;1.92;1.17;;;24.60;99.90;;;;;;5065406;28;20205;-71
2022/07/13 19:35:38;;;;;;;2.13;1.17;;;24.60;99.90;;;;;;5064616;28;20297;-74
2022/07/13 19:38:06;;;;;;;1.65;1.20;;;24.60;99.90;;;;;;5058369;28;20239;-74
2022/07/13 19:40:32;;;;;;;2.55;1.20;;;24.50;99.90;;;;;;5065915;28;20223;-75
2022/07/13 19:43:00;;;;;;;3.80;1.20;;;24.50;99.90;;;;;;5066358;28;20203;-75
2022/07/13 19:45:27;;;;;;;2.80;1.30;;;24.50;99.90;;;;;;5065429;28;20719;-72
2022/07/13 19:47:53;;;;;;;4.00;1.27;;;24.50;99.90;;;;;;5059016;28;20219;-72
2022/07/13 19:50:21;;;;;;;1.77;1.00;;;24.50;99.90;;;;;;5064296;28;20212;-75
2022/07/13 19:52:49;;;;;;;2.05;1.10;;;24.50;99.90;;;;;;5059991;28;20609;-70
2022/07/13 19:55:16;;;;;;;1.73;1.08;;;24.30;99.90;;;;;;5067917;28;20204;-74
2022/07/13 19:57:51;;;;;;;1.08;0.85;;;24.20;99.90;;;;;;5059344;28;20223;-75
2022/07/13 20:00:19;;;;;;;2.15;1.10;;;24.30;99.90;;;;;;5058497;28;20594;-75
2022/07/13 20:02:47;;;;;;;1.30;0.90;;;24.30;99.90;;;;;;5062504;28;20557;-74
2022/07/13 20:05:14;;;;;;;1.55;0.80;;;24.00;99.90;;;;;;5064657;28;20211;-74
2022/07/13 20:07:55;;;;;;;1.90;0.93;;;24.00;99.60;;;;;;5059961;28;20227;-75
2022/07/13 20:10:23;;;;;;;1.02;0.70;;;23.90;99.70;;;;;;5066516;28;20234;-75
2022/07/13 20:12:50;;;;;;;1.17;0.93;;;23.90;99.70;;;;;;5059972;28;20299;-75
2022/07/13 20:15:17;;;;;;;1.00;0.77;;;23.70;99.90;;;;;;5063149;28;20199;-74
2022/07/13 20:17:44;;;;;;;1.67;0.88;;;23.70;99.90;;;;;;5063511;28;20230;-74
2022/07/13 20:20:13;;;;;;;4.20;0.88;;;23.70;99.90;;;;;;5060115;28;20238;-70
2022/07/13 20:22:41;;;;;;;1.75;0.75;;;23.80;99.80;;;;;;5062848;28;20206;-68
2022/07/13 20:25:09;;;;;;;1.60;0.82;;;23.80;99.90;;;;;;5064246;28;20210;-66
2022/07/13 20:27:38;;;;;;;2.38;0.98;;;23.70;99.90;;;;;;5063856;28;20227;-68
2022/07/13 20:30:05;;;;;;;3.38;0.90;;;23.80;99.90;;;;;;5063951;28;20207;-74
2022/07/13 20:32:32;;;;;;;1.02;0.80;;;23.80;99.90;;;;;;5063893;28;20203;-75
2022/07/13 20:34:59;;;;;;;1.30;1.00;;;23.80;99.90;;;;;;5062984;28;20208;-74
2022/07/13 20:37:26;;;;;;;2.53;0.93;;;23.50;99.90;;;;;;5060320;28;20231;-74
2022/07/13 20:39:53;;;;;;;2.25;1.05;;;23.50;99.90;;;;;;5061777;28;20659;-74
2022/07/13 20:42:20;;;;;;;2.38;1.25;;;23.50;99.90;;;;;;5061609;28;20298;-73
2022/07/13 20:44:48;;;;;;;1.63;0.95;;;23.60;99.90;;;;;;5062193;28;20233;-74
2022/07/13 20:47:15;;;;;;;1.52;1.00;;;23.70;99.90;;;;;;5059949;28;20744;-71
2022/07/13 20:49:41;;;;;;;3.30;1.30;;;23.40;99.90;;;;;;5062957;28;20247;-65
2022/07/13 20:52:09;;;;;;;2.80;1.65;;;23.20;99.90;;;;;;5064059;28;20293;-71
2022/07/13 20:54:36;;;;;;;2.28;1.58;;;23.10;99.90;;;;;;5062111;28;20235;-72
2022/07/13 20:57:03;;;;;;;1.67;1.30;;;23.10;99.90;;;;;;5063922;28;20224;-73
2022/07/13 20:59:30;;;;;;;1.73;1.33;;;22.90;99.90;;;;;;5056681;28;20214;-74
2022/07/13 21:01:58;;;;;;;2.10;1.20;;;23.00;99.90;;;;;;5066822;28;20698;-71
2022/07/13 21:04:25;;;;;;;1.95;1.40;;;23.00;99.90;;;;;;5060381;28;20208;-73
2022/07/13 21:06:52;;;;;;;2.40;1.67;;;22.80;99.90;;;;;;5054740;28;20666;-71
2022/07/13 21:09:19;;;;;;;4.43;1.48;;;22.80;99.90;;;;;;5053789;28;20679;-73
2022/07/13 21:11:46;;;;;;;2.80;1.48;;;22.80;99.90;;;;;;5053352;28;20204;-71
2022/07/13 21:14:12;;;;;;;5.13;1.60;;;22.70;99.90;;;;;;5052691;28;20291;-73
2022/07/13 21:16:39;;;;;;;1.88;1.13;;;22.80;99.90;;;;;;5053472;28;20306;-73
2022/07/13 21:19:07;;;;;;;2.25;1.20;;;22.80;99.90;;;;;;5053417;28;20206;-75
2022/07/13 21:21:34;;;;;;;1.90;1.70;;;22.70;99.90;;;;;;5053336;28;20231;-76
2022/07/13 21:24:01;;;;;;;1.85;1.58;;;22.50;99.90;;;;;;5053832;28;20214;-73